Time;durP1;ratioP1;P1;durP2;ratioP2;P2;SDS_P1;SDS_P2;PMS_P1;PMS_P2;Temp;Humidity;BMP_temperature;BMP_pressure;BME280_temperature;BME280_humidity;BME280_pressure;Samples;Min_cycle;Max_cycle;Signal;HPM_P1;HPM_P2
2023/08/28 00:01:53;;;;;;;3.67;3.13;;;12.80;99.90;;;;;;5080621;28;20590;-79
2023/08/28 00:04:20;;;;;;;5.67;3.43;;;12.70;99.90;;;;;;5091120;28;20582;-79
2023/08/28 00:06:48;;;;;;;5.53;3.33;;;12.70;99.90;;;;;;5093659;28;20199;-80
2023/08/28 00:09:15;;;;;;;4.63;3.20;;;12.80;99.90;;;;;;5094027;28;20229;-79
2023/08/28 00:11:42;;;;;;;5.30;3.47;;;12.80;99.90;;;;;;5090535;28;20198;-79
2023/08/28 00:14:09;;;;;;;5.30;3.53;;;12.80;99.90;;;;;;5079773;28;20708;-79
2023/08/28 00:16:36;;;;;;;5.07;3.40;;;12.70;99.90;;;;;;5086831;28;20286;-80
2023/08/28 00:19:03;;;;;;;6.37;3.93;;;12.80;99.90;;;;;;5069788;28;20209;-80
2023/08/28 00:21:30;;;;;;;5.13;3.50;;;12.80;99.90;;;;;;5090776;28;20580;-80
2023/08/28 00:23:58;;;;;;;5.70;4.00;;;12.80;99.90;;;;;;5093754;28;20202;-79
2023/08/28 00:26:25;;;;;;;7.80;3.57;;;12.80;99.90;;;;;;5086765;28;20202;-79
2023/08/28 00:28:52;;;;;;;5.60;3.70;;;12.80;99.90;;;;;;5091143;28;20601;-80
2023/08/28 00:31:18;;;;;;;4.13;3.70;;;12.80;99.90;;;;;;5087416;28;20218;-79
2023/08/28 00:33:45;;;;;;;6.17;3.73;;;12.80;99.90;;;;;;5083878;28;20215;-79
2023/08/28 00:36:12;;;;;;;4.83;3.97;;;12.80;99.90;;;;;;5082239;28;20264;-79
2023/08/28 00:38:39;;;;;;;5.10;3.40;;;12.80;99.90;;;;;;5075267;28;20205;-79
2023/08/28 00:41:07;;;;;;;6.43;3.70;;;12.70;99.90;;;;;;5073419;28;20241;-80
2023/08/28 00:43:34;;;;;;;5.00;4.07;;;12.70;99.90;;;;;;5082244;28;20241;-80
2023/08/28 00:46:02;;;;;;;6.23;3.87;;;12.60;99.90;;;;;;5078226;28;20221;-80
2023/08/28 00:48:30;;;;;;;4.83;4.03;;;12.70;99.90;;;;;;5082474;28;20206;-80
2023/08/28 00:50:57;;;;;;;6.87;4.73;;;12.60;99.90;;;;;;5089565;28;20233;-79
2023/08/28 00:53:24;;;;;;;4.73;4.13;;;12.70;99.90;;;;;;5077028;28;20732;-78
2023/08/28 00:55:51;;;;;;;6.13;4.70;;;12.70;99.90;;;;;;5087600;28;20669;-79
2023/08/28 00:58:21;;;;;;;6.77;5.00;;;12.80;99.90;;;;;;5091215;28;20206;-80
2023/08/28 01:00:48;;;;;;;6.37;4.87;;;12.90;99.90;;;;;;5087590;28;20222;-79
2023/08/28 01:03:15;;;;;;;8.00;5.03;;;13.00;99.90;;;;;;5078147;28;20206;-80
2023/08/28 01:05:49;;;;;;;7.47;4.90;;;12.90;99.90;;;;;;5090601;28;20266;-79
2023/08/28 01:08:28;;;;;;;8.67;4.93;;;13.00;99.90;;;;;;5083536;28;20211;-81
2023/08/28 01:10:59;;;;;;;7.00;5.00;;;13.00;99.90;;;;;;5092153;28;20230;-78
2023/08/28 01:13:35;;;;;;;7.47;4.97;;;13.00;99.90;;;;;;5082855;28;20618;-80
2023/08/28 01:16:02;;;;;;;12.10;5.30;;;13.00;99.90;;;;;;5094200;28;20214;-80
2023/08/28 01:18:29;;;;;;;7.03;5.20;;;12.90;99.90;;;;;;5089735;28;20208;-79
2023/08/28 01:20:57;;;;;;;6.90;5.53;;;12.90;99.90;;;;;;5085561;28;20229;-81
2023/08/28 01:23:28;;;;;;;7.70;5.30;;;12.90;99.90;;;;;;5094200;28;20205;-78
2023/08/28 01:25:57;;;;;;;6.70;5.07;;;12.90;99.90;;;;;;5084953;28;20667;-79
2023/08/28 01:28:28;;;;;;;8.17;5.30;;;12.90;99.90;;;;;;5085136;28;20285;-81
2023/08/28 01:30:55;;;;;;;6.50;5.07;;;12.90;99.90;;;;;;5093973;28;20758;-78
2023/08/28 01:33:22;;;;;;;7.67;4.77;;;12.90;99.90;;;;;;5087864;28;20203;-80
2023/08/28 01:35:56;;;;;;;7.80;5.60;;;12.90;99.90;;;;;;5090753;28;20210;-78
2023/08/28 01:38:29;;;;;;;7.73;5.30;;;12.90;99.90;;;;;;5088519;28;20284;-80
2023/08/28 01:40:59;;;;;;;8.33;5.53;;;12.90;99.90;;;;;;5094086;28;20226;-80
2023/08/28 01:43:30;;;;;;;7.50;5.77;;;12.80;99.90;;;;;;5078213;28;20194;-79
2023/08/28 01:45:57;;;;;;;7.17;5.30;;;12.70;99.90;;;;;;5075788;28;20211;-81
2023/08/28 01:48:28;;;;;;;6.43;5.10;;;12.70;99.90;;;;;;5076063;28;20293;-80
2023/08/28 01:50:54;;;;;;;8.33;4.70;;;12.60;99.90;;;;;;5080030;28;20226;-80
2023/08/28 01:53:22;;;;;;;8.40;5.50;;;12.70;99.90;;;;;;5075019;28;20202;-80
2023/08/28 01:56:18;;;;;;;9.03;5.20;;;12.70;99.90;;;;;;5079595;28;20286;-80
2023/08/28 01:58:49;;;;;;;8.53;6.37;;;12.70;99.90;;;;;;5079462;28;20210;-80
2023/08/28 02:01:16;;;;;;;7.63;5.60;;;12.70;99.90;;;;;;5069478;28;20353;-81
2023/08/28 02:03:43;;;;;;;7.30;5.10;;;12.60;99.90;;;;;;5081474;28;20271;-81
2023/08/28 02:06:10;;;;;;;7.43;5.53;;;12.60;99.90;;;;;;5096141;28;20221;-79
2023/08/28 02:08:38;;;;;;;8.53;5.90;;;12.60;99.90;;;;;;5077768;28;20202;-79
2023/08/28 02:11:05;;;;;;;9.17;6.73;;;12.60;99.90;;;;;;5092482;28;20225;-80
2023/08/28 02:13:32;;;;;;;10.80;6.60;;;12.60;99.90;;;;;;5080616;28;20217;-80
2023/08/28 02:16:01;;;;;;;8.33;6.40;;;12.70;99.90;;;;;;5088948;28;20228;-79
2023/08/28 02:18:28;;;;;;;9.40;6.50;;;12.70;99.90;;;;;;5100573;28;20205;-81
2023/08/28 02:20:55;;;;;;;10.93;6.90;;;12.60;99.90;;;;;;5082851;28;20240;-80
2023/08/28 02:23:21;;;;;;;8.53;5.90;;;12.60;99.90;;;;;;5091777;28;20265;-80
2023/08/28 02:25:50;;;;;;;9.70;6.53;;;12.50;99.90;;;;;;5077383;28;20278;-81
2023/08/28 02:28:18;;;;;;;9.67;6.60;;;12.40;99.90;;;;;;5082771;28;20238;-79
2023/08/28 02:30:45;;;;;;;8.87;6.47;;;12.30;99.90;;;;;;5098052;28;20245;-80
2023/08/28 02:33:13;;;;;;;9.83;6.80;;;12.30;99.90;;;;;;5078804;28;20197;-80
2023/08/28 02:35:40;;;;;;;8.37;6.27;;;12.20;99.90;;;;;;5086048;28;20214;-80
2023/08/28 02:38:08;;;;;;;9.23;6.30;;;12.30;99.90;;;;;;5084147;28;20297;-81
2023/08/28 02:40:36;;;;;;;8.10;6.17;;;12.30;99.90;;;;;;5079951;28;20257;-80
2023/08/28 02:43:05;;;;;;;11.77;7.03;;;12.30;99.90;;;;;;5080193;28;20203;-80
2023/08/28 02:45:33;;;;;;;10.90;7.70;;;12.20;99.90;;;;;;5081027;28;20655;-80
2023/08/28 02:48:00;;;;;;;9.50;6.70;;;12.10;99.90;;;;;;5090587;28;20214;-80
2023/08/28 02:50:28;;;;;;;9.57;6.97;;;12.10;99.90;;;;;;5074702;28;20224;-82
2023/08/28 02:52:55;;;;;;;10.00;7.07;;;12.10;99.90;;;;;;5083375;28;20202;-80
2023/08/28 02:55:23;;;;;;;10.53;6.60;;;12.00;99.90;;;;;;5080110;28;20305;-79
2023/08/28 02:57:50;;;;;;;9.40;6.90;;;11.90;99.90;;;;;;5081705;28;20202;-80
2023/08/28 03:00:18;;;;;;;9.33;6.70;;;11.90;99.90;;;;;;5082562;28;20717;-80
2023/08/28 03:02:45;;;;;;;9.80;6.90;;;11.80;99.90;;;;;;5086935;28;20204;-80
2023/08/28 03:05:12;;;;;;;11.50;8.70;;;11.80;99.90;;;;;;5091816;28;20198;-84
2023/08/28 03:07:40;;;;;;;11.27;8.27;;;11.90;99.90;;;;;;5079493;28;20652;-80
2023/08/28 03:10:08;;;;;;;14.00;7.87;;;11.90;99.90;;;;;;5085375;28;20294;-80
2023/08/28 03:12:35;;;;;;;12.03;8.27;;;11.90;99.90;;;;;;5086450;28;20285;-80
2023/08/28 03:15:03;;;;;;;12.20;9.03;;;12.00;99.90;;;;;;5090804;28;20241;-80
2023/08/28 03:17:30;;;;;;;14.20;9.17;;;12.00;99.90;;;;;;5089278;28;20294;-80
2023/08/28 03:19:56;;;;;;;11.93;9.30;;;12.00;99.90;;;;;;5090231;28;20702;-78
2023/08/28 03:22:23;;;;;;;12.23;8.97;;;12.10;99.90;;;;;;5100760;28;20198;-79
2023/08/28 03:24:52;;;;;;;12.37;8.90;;;12.10;99.90;;;;;;5089440;28;20204;-79
2023/08/28 03:27:19;;;;;;;12.90;9.17;;;12.00;99.90;;;;;;5085208;28;20285;-79
2023/08/28 03:29:46;;;;;;;15.23;10.00;;;12.10;99.90;;;;;;5080591;28;20612;-80
2023/08/28 03:32:13;;;;;;;12.70;10.03;;;12.10;99.90;;;;;;5089781;28;20210;-79
2023/08/28 03:34:40;;;;;;;14.10;9.90;;;12.10;99.90;;;;;;5095154;28;20197;-79
2023/08/28 03:37:06;;;;;;;15.80;9.33;;;12.00;99.90;;;;;;5101006;28;20201;-79
2023/08/28 03:39:33;;;;;;;10.97;8.57;;;12.10;99.90;;;;;;5101259;28;20227;-78
2023/08/28 03:42:02;;;;;;;14.23;9.70;;;12.10;99.90;;;;;;5100796;28;20204;-77
2023/08/28 03:44:28;;;;;;;13.60;10.07;;;12.20;99.90;;;;;;5089717;28;20210;-79
2023/08/28 03:46:55;;;;;;;15.50;9.93;;;12.10;99.90;;;;;;5090140;28;20205;-80
2023/08/28 03:49:22;;;;;;;13.70;9.63;;;12.00;99.90;;;;;;5071859;28;20222;-79
2023/08/28 03:51:49;;;;;;;15.13;9.77;;;12.00;99.90;;;;;;5087958;28;20194;-78
2023/08/28 03:54:16;;;;;;;17.57;10.60;;;12.00;99.90;;;;;;5087245;28;20293;-79
2023/08/28 03:56:43;;;;;;;13.67;10.33;;;11.90;99.90;;;;;;5080271;28;20214;-78
2023/08/28 03:59:11;;;;;;;14.83;10.30;;;12.00;99.90;;;;;;5079464;28;20232;-79
2023/08/28 04:01:38;;;;;;;14.00;9.63;;;11.90;99.90;;;;;;5078766;28;20198;-79
2023/08/28 04:04:05;;;;;;;12.73;9.27;;;11.80;99.90;;;;;;5080874;28;20210;-78
2023/08/28 04:06:32;;;;;;;13.73;8.97;;;11.80;99.90;;;;;;5100565;28;20190;-79
2023/08/28 04:08:59;;;;;;;12.10;8.40;;;11.70;99.90;;;;;;5092435;28;20616;-79
2023/08/28 04:11:26;;;;;;;11.93;7.90;;;11.70;99.90;;;;;;5089417;28;20195;-79
2023/08/28 04:13:53;;;;;;;16.23;10.27;;;11.60;99.90;;;;;;5080982;28;20290;-78
2023/08/28 04:16:21;;;;;;;14.73;10.17;;;11.80;99.90;;;;;;5101160;28;20301;-79
2023/08/28 04:18:48;;;;;;;17.47;10.87;;;11.80;99.90;;;;;;5079080;28;20663;-79
2023/08/28 04:21:15;;;;;;;15.43;10.27;;;11.80;99.90;;;;;;5082435;28;20305;-78
2023/08/28 04:23:42;;;;;;;16.77;10.57;;;11.80;99.90;;;;;;5081998;28;20203;-78
2023/08/28 04:26:09;;;;;;;17.77;11.10;;;11.70;99.90;;;;;;5088574;28;20205;-79
2023/08/28 04:28:36;;;;;;;15.40;11.17;;;11.80;99.90;;;;;;5083019;28;20288;-77
2023/08/28 04:31:03;;;;;;;16.60;10.40;;;11.80;99.90;;;;;;5089566;28;20586;-79
2023/08/28 04:33:31;;;;;;;15.40;11.03;;;11.80;99.90;;;;;;5077269;28;20208;-79
2023/08/28 04:35:58;;;;;;;18.77;11.07;;;11.80;99.90;;;;;;5089914;28;20237;-78
2023/08/28 04:38:25;;;;;;;16.67;11.57;;;11.80;99.90;;;;;;5087149;28;20204;-79
2023/08/28 04:40:52;;;;;;;17.67;12.17;;;11.90;99.90;;;;;;5091462;28;20298;-80
2023/08/28 04:43:19;;;;;;;18.03;11.87;;;12.00;99.90;;;;;;5079860;28;20293;-79
2023/08/28 04:45:49;;;;;;;17.23;12.07;;;12.00;99.90;;;;;;5095996;28;20675;-78
2023/08/28 04:48:16;;;;;;;16.33;12.27;;;11.90;99.90;;;;;;5088662;28;20260;-79
2023/08/28 04:50:45;;;;;;;16.70;11.70;;;11.90;99.90;;;;;;5097751;28;20245;-80
2023/08/28 04:53:12;;;;;;;19.10;11.20;;;12.10;99.90;;;;;;5093824;28;20202;-79
2023/08/28 04:55:40;;;;;;;16.83;11.27;;;12.10;99.90;;;;;;5076362;28;20280;-80
2023/08/28 04:58:07;;;;;;;17.60;12.27;;;12.00;99.90;;;;;;5096545;28;20229;-79
2023/08/28 05:00:34;;;;;;;16.70;11.30;;;12.00;99.90;;;;;;5086476;28;20312;-79
2023/08/28 05:03:01;;;;;;;20.63;12.77;;;12.20;99.90;;;;;;5093638;28;20305;-79
2023/08/28 05:05:28;;;;;;;16.60;11.30;;;12.20;99.90;;;;;;5096762;28;20212;-80
2023/08/28 05:07:58;;;;;;;16.23;11.77;;;12.30;99.90;;;;;;5092743;28;20249;-80
2023/08/28 05:10:25;;;;;;;17.40;12.27;;;12.30;99.90;;;;;;5102119;28;20226;-78
2023/08/28 05:12:52;;;;;;;18.00;11.63;;;12.30;99.90;;;;;;5101121;28;20625;-78
2023/08/28 05:15:19;;;;;;;18.07;12.23;;;12.40;99.90;;;;;;5094895;28;20292;-80
2023/08/28 05:17:47;;;;;;;17.60;11.60;;;12.40;99.90;;;;;;5080187;28;20235;-79
2023/08/28 05:20:14;;;;;;;18.87;12.57;;;12.50;99.90;;;;;;5099083;28;20221;-79
2023/08/28 05:22:41;;;;;;;17.47;12.80;;;12.60;99.90;;;;;;5084844;28;20224;-80
2023/08/28 05:25:10;;;;;;;18.90;12.70;;;12.80;99.90;;;;;;5091010;28;20210;-77
2023/08/28 05:27:36;;;;;;;17.37;11.03;;;12.80;99.90;;;;;;5099843;28;20226;-79
2023/08/28 05:30:04;;;;;;;16.37;11.03;;;12.90;99.90;;;;;;5084124;28;20224;-80
2023/08/28 05:32:30;;;;;;;15.40;10.77;;;12.80;99.90;;;;;;5084589;28;20202;-78
2023/08/28 05:34:58;;;;;;;15.17;11.20;;;12.80;99.90;;;;;;5091430;28;20288;-79
2023/08/28 05:37:25;;;;;;;22.40;11.93;;;12.90;99.90;;;;;;5092615;28;20269;-78
2023/08/28 05:39:52;;;;;;;15.23;11.63;;;13.00;99.90;;;;;;5090554;28;20225;-79
2023/08/28 05:42:20;;;;;;;17.77;11.37;;;13.00;99.90;;;;;;5084598;28;20266;-78
2023/08/28 05:44:47;;;;;;;17.23;11.97;;;13.00;99.90;;;;;;5077853;28;20198;-78
2023/08/28 05:47:14;;;;;;;16.73;12.13;;;13.20;99.90;;;;;;5093744;28;20202;-80
2023/08/28 05:49:41;;;;;;;18.37;11.93;;;13.30;99.90;;;;;;5082916;28;20297;-79
2023/08/28 05:52:08;;;;;;;17.57;12.00;;;13.30;99.90;;;;;;5092807;28;20229;-80
2023/08/28 05:54:35;;;;;;;16.43;12.10;;;13.40;99.90;;;;;;5092046;28;20567;-78
2023/08/28 05:57:03;;;;;;;18.30;12.97;;;13.50;99.90;;;;;;5088511;28;20229;-76
2023/08/28 05:59:31;;;;;;;17.60;12.00;;;13.50;99.90;;;;;;5090433;28;20225;-79
2023/08/28 06:01:59;;;;;;;16.47;12.50;;;13.60;99.90;;;;;;5085774;28;20212;-78
2023/08/28 06:04:25;;;;;;;19.13;13.17;;;13.60;99.90;;;;;;5078524;28;20224;-77
2023/08/28 06:06:52;;;;;;;18.88;12.93;;;13.60;99.90;;;;;;5086776;28;20198;-78
2023/08/28 06:09:19;;;;;;;17.17;11.97;;;13.70;99.90;;;;;;5088974;28;20232;-79
2023/08/28 06:11:46;;;;;;;19.13;12.73;;;13.80;99.90;;;;;;5089905;28;20206;-78
2023/08/28 06:14:13;;;;;;;18.70;13.30;;;13.90;99.90;;;;;;5087590;28;20213;-79
2023/08/28 06:16:41;;;;;;;16.63;12.20;;;13.90;99.90;;;;;;5093607;28;20218;-79
2023/08/28 06:19:08;;;;;;;18.02;13.43;;;14.00;99.90;;;;;;5075923;28;20209;-79
2023/08/28 06:21:35;;;;;;;17.45;12.63;;;14.00;99.90;;;;;;5065453;28;20203;-79
2023/08/28 06:24:02;;;;;;;17.75;12.77;;;14.10;99.90;;;;;;5067015;28;20247;-80
2023/08/28 06:26:28;;;;;;;18.02;13.50;;;14.10;99.90;;;;;;5071901;28;20578;-77
2023/08/28 06:28:55;;;;;;;18.57;13.27;;;14.40;99.90;;;;;;5085136;28;20296;-79
2023/08/28 06:31:22;;;;;;;16.45;12.27;;;14.30;99.90;;;;;;5086138;28;20652;-78
2023/08/28 06:33:50;;;;;;;17.42;13.45;;;14.30;99.90;;;;;;5102091;28;20287;-78
2023/08/28 06:36:17;;;;;;;18.75;13.45;;;14.20;99.90;;;;;;5093433;28;20215;-78
2023/08/28 06:38:44;;;;;;;18.80;13.97;;;14.20;99.90;;;;;;5097920;28;20198;-78
2023/08/28 06:41:11;;;;;;;21.07;13.30;;;14.40;99.90;;;;;;5089819;28;20600;-77
2023/08/28 06:43:38;;;;;;;20.30;12.97;;;14.30;99.90;;;;;;5081471;28;20566;-79
2023/08/28 06:46:04;;;;;;;18.15;12.18;;;14.30;99.90;;;;;;5095874;28;20292;-79
2023/08/28 06:48:31;;;;;;;19.85;13.23;;;14.40;99.90;;;;;;5086120;28;20672;-77
2023/08/28 06:50:59;;;;;;;17.15;12.43;;;14.50;99.90;;;;;;5092506;28;20721;-79
2023/08/28 06:53:26;;;;;;;16.97;12.80;;;14.50;99.90;;;;;;5081685;28;20663;-78
2023/08/28 06:55:53;;;;;;;17.20;12.10;;;14.60;99.90;;;;;;5095670;28;20218;-79
2023/08/28 06:58:20;;;;;;;18.15;12.25;;;14.60;99.90;;;;;;5088623;28;20213;-79
2023/08/28 07:00:47;;;;;;;16.83;12.30;;;14.70;99.90;;;;;;5093020;28;20219;-78
2023/08/28 07:03:14;;;;;;;17.35;11.70;;;14.80;99.90;;;;;;5093303;28;20574;-79
2023/08/28 07:05:41;;;;;;;17.58;11.52;;;14.80;99.90;;;;;;5084659;28;20281;-77
2023/08/28 07:08:09;;;;;;;15.07;11.13;;;14.90;99.90;;;;;;5083188;28;20210;-78
2023/08/28 07:10:36;;;;;;;15.63;11.40;;;14.90;99.90;;;;;;5083199;28;20249;-79
2023/08/28 07:13:02;;;;;;;15.02;10.65;;;15.00;99.90;;;;;;5099481;28;20659;-79
2023/08/28 07:15:59;;;;;;;18.50;11.70;;;14.90;99.90;;;;;;5098488;28;20225;-79
2023/08/28 07:18:26;;;;;;;17.02;11.05;;;14.90;99.90;;;;;;5096475;28;20682;-79
2023/08/28 07:20:53;;;;;;;17.67;12.00;;;15.00;99.90;;;;;;5094609;28;20225;-79
2023/08/28 07:23:22;;;;;;;20.77;12.52;;;15.00;99.90;;;;;;5091341;28;20233;-78
2023/08/28 07:25:49;;;;;;;18.15;11.52;;;15.00;99.90;;;;;;5089576;28;20199;-78
2023/08/28 07:28:16;;;;;;;14.82;10.05;;;15.10;99.90;;;;;;5093784;28;20205;-78
2023/08/28 07:30:43;;;;;;;12.90;8.45;;;15.20;99.90;;;;;;5086235;28;20245;-78
2023/08/28 07:33:10;;;;;;;12.63;8.20;;;15.20;99.90;;;;;;5094092;28;20202;-78
2023/08/28 07:35:37;;;;;;;12.27;8.23;;;15.30;99.90;;;;;;5091135;28;20206;-78
2023/08/28 07:38:06;;;;;;;12.68;8.48;;;15.30;99.90;;;;;;5093538;28;20293;-80
2023/08/28 07:40:34;;;;;;;14.15;8.65;;;15.40;99.90;;;;;;5089514;28;20228;-80
2023/08/28 07:43:01;;;;;;;15.10;8.80;;;15.40;99.90;;;;;;5085619;28;20198;-78
2023/08/28 07:45:29;;;;;;;11.98;8.48;;;15.40;99.90;;;;;;5080118;28;20274;-79
2023/08/28 07:47:56;;;;;;;13.45;9.20;;;15.50;99.90;;;;;;5077745;28;20210;-77
2023/08/28 07:50:23;;;;;;;10.65;7.65;;;15.70;99.90;;;;;;5077644;28;20229;-79
2023/08/28 07:52:50;;;;;;;11.27;7.72;;;15.60;99.90;;;;;;5087627;28;20660;-79
2023/08/28 07:55:17;;;;;;;11.88;7.13;;;15.70;99.90;;;;;;5088437;28;20202;-78
2023/08/28 07:57:45;;;;;;;11.75;7.78;;;15.70;99.90;;;;;;5081870;28;20278;-77
2023/08/28 08:00:13;;;;;;;11.07;7.15;;;15.70;99.90;;;;;;5085466;28;20239;-79
2023/08/28 08:02:41;;;;;;;11.18;7.28;;;15.80;99.90;;;;;;5083023;28;20193;-78
2023/08/28 08:05:10;;;;;;;9.85;6.90;;;16.00;99.90;;;;;;5088234;28;20247;-78
2023/08/28 08:07:37;;;;;;;9.95;6.57;;;16.00;99.90;;;;;;5091677;28;20213;-78
2023/08/28 08:10:05;;;;;;;10.75;5.90;;;16.10;99.90;;;;;;5086177;28;20609;-78
2023/08/28 08:12:32;;;;;;;8.07;5.78;;;16.10;99.90;;;;;;5079349;28;20295;-78
2023/08/28 08:15:00;;;;;;;10.85;6.70;;;16.10;99.90;;;;;;5086710;28;20206;-80
2023/08/28 08:17:27;;;;;;;7.32;5.60;;;16.20;99.90;;;;;;5085161;28;20314;-80
2023/08/28 08:19:54;;;;;;;8.75;5.85;;;16.40;99.90;;;;;;5077938;28;20227;-77
2023/08/28 08:22:21;;;;;;;10.13;6.32;;;16.50;99.90;;;;;;5096076;28;20209;-79
2023/08/28 08:24:48;;;;;;;6.60;4.28;;;16.60;99.90;;;;;;5098396;28;20198;-80
2023/08/28 08:27:15;;;;;;;6.70;3.67;;;16.60;99.90;;;;;;5092018;28;20202;-79
2023/08/28 08:29:42;;;;;;;9.15;6.43;;;16.60;99.90;;;;;;5095419;28;20236;-79
2023/08/28 08:32:11;;;;;;;9.27;5.40;;;16.70;99.90;;;;;;5089547;28;20269;-79
2023/08/28 08:34:37;;;;;;;8.05;5.13;;;16.70;99.90;;;;;;5102333;28;20205;-80
2023/08/28 08:37:05;;;;;;;3.90;2.75;;;16.90;99.90;;;;;;5092636;28;20305;-78
2023/08/28 08:39:31;;;;;;;2.47;2.15;;;17.00;99.90;;;;;;5092444;28;20309;-78
2023/08/28 08:41:59;;;;;;;4.72;2.53;;;17.00;99.90;;;;;;5098463;28;20270;-80
2023/08/28 08:44:25;;;;;;;2.63;2.35;;;16.90;99.90;;;;;;5095847;28;20206;-78
2023/08/28 08:46:53;;;;;;;2.72;2.50;;;17.00;99.90;;;;;;5087828;28;20221;-79
2023/08/28 08:49:26;;;;;;;3.13;2.63;;;17.10;99.90;;;;;;5096267;28;20281;-80
2023/08/28 08:51:57;;;;;;;4.68;3.33;;;17.20;99.90;;;;;;5096740;28;20224;-78
2023/08/28 08:54:30;;;;;;;5.45;3.00;;;17.20;99.90;;;;;;5095869;28;20204;-78
2023/08/28 08:57:01;;;;;;;3.83;2.65;;;17.30;99.90;;;;;;5083168;28;20218;-79
2023/08/28 08:59:28;;;;;;;3.80;2.78;;;17.40;99.90;;;;;;5100000;28;20235;-80
2023/08/28 09:01:55;;;;;;;4.05;2.90;;;17.50;99.90;;;;;;5092151;28;20669;-80
2023/08/28 09:04:25;;;;;;;5.57;3.47;;;17.60;99.90;;;;;;5091667;28;20206;-80
2023/08/28 09:06:52;;;;;;;6.55;2.88;;;17.60;99.90;;;;;;5083920;28;20202;-81
2023/08/28 09:09:20;;;;;;;3.95;3.20;;;17.50;99.90;;;;;;5092974;28;20252;-79
2023/08/28 09:11:48;;;;;;;6.10;4.07;;;17.60;99.90;;;;;;5101948;28;20198;-79
2023/08/28 09:14:15;;;;;;;6.43;3.47;;;17.60;99.90;;;;;;5093307;28;20218;-79
2023/08/28 09:16:42;;;;;;;5.40;3.97;;;17.70;99.90;;;;;;5096176;28;20313;-78
2023/08/28 09:19:09;;;;;;;5.20;3.97;;;17.70;99.90;;;;;;5089366;28;20214;-81
2023/08/28 09:21:39;;;;;;;4.20;3.67;;;17.50;99.90;;;;;;5095203;28;20206;-79
2023/08/28 09:24:09;;;;;;;4.60;3.40;;;17.80;99.90;;;;;;5096227;28;20228;-78
2023/08/28 09:26:38;;;;;;;5.15;3.72;;;17.80;99.90;;;;;;5094394;28;20213;-79
2023/08/28 09:29:07;;;;;;;4.15;3.45;;;17.80;99.90;;;;;;5097694;28;20206;-78
2023/08/28 09:31:36;;;;;;;4.95;3.17;;;17.90;99.90;;;;;;5095796;28;20213;-78
2023/08/28 09:34:04;;;;;;;4.70;3.38;;;17.90;99.90;;;;;;5096340;28;20205;-80
2023/08/28 09:36:34;;;;;;;5.53;3.47;;;18.10;99.90;;;;;;5094565;28;20201;-80
2023/08/28 09:39:04;;;;;;;4.50;3.15;;;18.10;99.90;;;;;;5091706;28;20722;-80
2023/08/28 09:41:40;;;;;;;4.63;3.88;;;18.40;99.90;;;;;;5093169;28;20227;-78
2023/08/28 09:44:07;;;;;;;4.22;3.58;;;18.50;99.90;;;;;;5090915;28;20558;-78
2023/08/28 09:46:36;;;;;;;5.85;3.92;;;18.50;99.90;;;;;;5092818;28;20207;-80
2023/08/28 09:49:03;;;;;;;4.82;3.47;;;18.20;99.90;;;;;;5095641;28;20198;-77
2023/08/28 09:51:40;;;;;;;5.15;3.40;;;18.40;99.90;;;;;;5087389;28;20202;-80
2023/08/28 09:54:09;;;;;;;5.07;3.00;;;18.50;99.90;;;;;;5104473;28;20205;-78
2023/08/28 09:56:36;;;;;;;3.80;3.10;;;18.70;99.90;;;;;;5096569;28;20567;-81
2023/08/28 09:59:03;;;;;;;4.28;3.47;;;18.90;99.90;;;;;;5095354;28;20197;-80
2023/08/28 10:01:33;;;;;;;6.03;3.40;;;19.20;99.90;;;;;;5096240;28;20720;-79
2023/08/28 10:04:02;;;;;;;3.78;3.35;;;19.50;99.90;;;;;;5091060;28;20206;-80
2023/08/28 10:06:30;;;;;;;4.63;3.47;;;19.20;99.90;;;;;;5091552;28;20289;-80
2023/08/28 10:09:00;;;;;;;5.20;3.42;;;19.20;99.90;;;;;;5083109;28;20202;-78
2023/08/28 10:11:37;;;;;;;4.63;3.53;;;19.50;99.90;;;;;;5092142;28;20209;-78
2023/08/28 10:14:05;;;;;;;2.63;2.10;;;19.30;99.90;;;;;;5071658;28;20210;-79
2023/08/28 10:16:36;;;;;;;2.92;2.42;;;19.60;99.90;;;;;;5089150;28;20270;-79
2023/08/28 10:19:10;;;;;;;2.30;2.10;;;19.40;99.90;;;;;;5078866;28;20229;-78
2023/08/28 10:21:38;;;;;;;2.72;2.53;;;19.10;99.90;;;;;;5078802;28;20262;-81
2023/08/28 10:24:06;;;;;;;5.18;2.80;;;19.10;99.90;;;;;;5065332;28;20207;-81
2023/08/28 10:26:35;;;;;;;2.72;2.25;;;18.90;99.90;;;;;;5072576;28;20198;-80
2023/08/28 10:29:04;;;;;;;3.15;2.30;;;18.70;99.90;;;;;;5087464;28;20201;-77
2023/08/28 10:31:31;;;;;;;2.92;2.60;;;18.70;99.90;;;;;;5094720;28;20205;-81
2023/08/28 10:34:00;;;;;;;3.70;2.70;;;18.80;99.90;;;;;;5078678;28;20265;-79
2023/08/28 10:36:29;;;;;;;2.88;2.30;;;18.80;99.90;;;;;;5091294;28;20202;-80
2023/08/28 10:38:56;;;;;;;3.17;1.90;;;19.00;99.90;;;;;;5094392;28;20226;-80
2023/08/28 10:41:25;;;;;;;1.88;1.77;;;19.30;99.90;;;;;;5090705;28;20271;-80
2023/08/28 10:43:54;;;;;;;2.20;2.00;;;19.70;99.90;;;;;;5098995;28;20210;-79
2023/08/28 10:46:22;;;;;;;2.20;2.00;;;19.70;99.90;;;;;;5093751;28;20224;-79
2023/08/28 10:48:56;;;;;;;1.65;1.55;;;19.80;99.90;;;;;;5083347;28;20194;-80
2023/08/28 10:51:29;;;;;;;1.73;1.60;;;19.90;99.90;;;;;;5082682;28;20207;-80
2023/08/28 10:54:01;;;;;;;2.03;1.80;;;20.20;99.90;;;;;;5085476;28;20559;-80
2023/08/28 10:56:32;;;;;;;2.75;2.03;;;20.30;99.90;;;;;;5093862;28;20639;-80
2023/08/28 10:59:25;;;;;;;2.10;1.92;;;20.80;99.90;;;;;;5079539;28;20555;-79
2023/08/28 11:01:53;;;;;;;2.05;1.45;;;20.60;99.90;;;;;;5084107;28;20289;-79
2023/08/28 11:04:20;;;;;;;2.60;1.20;;;20.80;99.90;;;;;;5087689;28;20210;-78
2023/08/28 11:06:47;;;;;;;1.83;1.40;;;20.60;99.90;;;;;;5090982;28;20592;-78
2023/08/28 11:09:34;;;;;;;2.42;1.58;;;20.30;99.90;;;;;;5086119;28;20197;-78
2023/08/28 11:12:27;;;;;;;2.55;1.92;;;20.80;99.90;;;;;;5089150;28;20224;-78
2023/08/28 11:15:03;;;;;;;3.08;1.75;;;21.10;99.90;;;;;;5078526;28;20232;-78
2023/08/28 11:17:34;;;;;;;3.97;1.75;;;20.80;99.90;;;;;;5083899;28;20221;-78
2023/08/28 11:20:05;;;;;;;2.05;1.52;;;20.70;99.90;;;;;;5082084;28;20224;-79
2023/08/28 11:22:33;;;;;;;2.10;1.40;;;20.80;99.90;;;;;;5090539;28;20585;-80
2023/08/28 11:25:01;;;;;;;3.50;1.80;;;21.00;99.90;;;;;;5087320;28;20225;-78
2023/08/28 11:27:33;;;;;;;1.50;1.40;;;20.90;99.90;;;;;;5085401;28;20219;-79
2023/08/28 11:30:05;;;;;;;2.20;1.90;;;20.50;99.90;;;;;;5086515;28;20688;-78
2023/08/28 11:32:33;;;;;;;2.03;1.60;;;20.10;99.90;;;;;;5079608;28;20198;-78
2023/08/28 11:35:01;;;;;;;2.08;1.52;;;20.40;99.90;;;;;;5078210;28;20297;-80
2023/08/28 11:37:32;;;;;;;2.55;1.42;;;20.50;99.90;;;;;;5081126;28;20225;-81
2023/08/28 11:39:59;;;;;;;2.03;1.52;;;20.80;99.90;;;;;;5098856;28;20609;-81
2023/08/28 11:42:26;;;;;;;2.55;1.75;;;20.70;99.90;;;;;;5090872;28;20207;-80
2023/08/28 11:44:53;;;;;;;1.90;1.48;;;20.80;99.90;;;;;;5087623;28;20487;-79
2023/08/28 11:47:28;;;;;;;1.85;1.13;;;21.40;99.90;;;;;;5079084;28;20281;-80
2023/08/28 11:49:55;;;;;;;2.03;1.45;;;21.90;99.90;;;;;;5088223;28;20218;-80
2023/08/28 11:52:22;;;;;;;2.03;1.27;;;21.40;99.90;;;;;;5096431;28;20205;-81
2023/08/28 11:54:49;;;;;;;2.80;1.30;;;21.70;99.90;;;;;;5085635;28;20212;-80
2023/08/28 11:57:17;;;;;;;1.17;1.10;;;21.40;99.90;;;;;;5093320;28;20307;-80
2023/08/28 11:59:45;;;;;;;1.92;1.20;;;21.40;99.90;;;;;;5079927;28;20222;-80
2023/08/28 12:02:13;;;;;;;2.13;1.92;;;21.50;99.90;;;;;;5100840;28;20198;-79
2023/08/28 12:04:42;;;;;;;1.80;1.58;;;21.60;99.90;;;;;;5091916;28;20202;-79
2023/08/28 12:07:18;;;;;;;2.47;1.60;;;21.30;99.90;;;;;;5084576;28;20195;-83
2023/08/28 12:09:46;;;;;;;2.60;1.45;;;21.60;99.90;;;;;;5074272;28;20222;-79
2023/08/28 12:12:14;;;;;;;2.13;1.98;;;21.90;99.90;;;;;;5098669;28;20198;-81
2023/08/28 12:14:44;;;;;;;1.98;1.88;;;21.40;99.90;;;;;;5083073;28;20210;-79
2023/08/28 12:17:14;;;;;;;2.00;1.77;;;21.70;99.90;;;;;;5092261;28;20205;-80
2023/08/28 12:19:43;;;;;;;2.45;1.50;;;21.30;99.90;;;;;;5089758;28;20218;-81
2023/08/28 12:22:11;;;;;;;2.00;1.20;;;21.40;99.90;;;;;;5076855;28;20204;-81
2023/08/28 12:24:42;;;;;;;2.00;1.45;;;21.30;99.90;;;;;;5090224;28;20236;-81
2023/08/28 12:27:10;;;;;;;2.30;1.88;;;22.00;99.90;;;;;;5089266;28;20285;-80
2023/08/28 12:29:36;;;;;;;2.38;1.70;;;22.20;99.90;;;;;;5097318;28;20312;-80
2023/08/28 12:32:06;;;;;;;3.47;1.85;;;22.50;99.90;;;;;;5102410;28;20217;-80
2023/08/28 12:34:33;;;;;;;1.67;1.58;;;21.70;99.90;;;;;;5081022;28;20210;-79
2023/08/28 12:37:11;;;;;;;1.60;1.50;;;21.80;99.90;;;;;;5092509;28;20202;-80
2023/08/28 12:39:45;;;;;;;4.22;2.00;;;21.90;99.90;;;;;;5093462;28;20226;-80
2023/08/28 12:42:12;;;;;;;2.45;1.30;;;22.20;99.90;;;;;;5074486;28;20206;-80
2023/08/28 12:44:41;;;;;;;1.98;1.40;;;22.20;99.90;;;;;;5086284;28;20210;-78
2023/08/28 12:47:09;;;;;;;3.03;1.70;;;22.30;99.90;;;;;;5083815;28;20265;-79